Time;durP1;ratioP1;P1;durP2;ratioP2;P2;SDS_P1;SDS_P2;PMS_P1;PMS_P2;Temp;Humidity;BMP_temperature;BMP_pressure;BME280_temperature;BME280_humidity;BME280_pressure;Samples;Min_cycle;Max_cycle;Signal;HPM_P1;HPM_P2
2022/08/13 00:04:33;;;;;;;13.40;3.58;;;;;;;24.55;34.55;101512.38;4997283;28;20039;-63
2022/08/13 00:07:10;;;;;;;6.18;3.40;;;;;;;24.43;34.62;101513.69;4997161;28;20030;-64
2022/08/13 00:09:42;;;;;;;11.13;3.67;;;;;;;24.35;34.23;101513.94;4997073;28;20044;-64
2022/08/13 00:15:18;;;;;;;7.05;3.63;;;;;;;24.23;34.67;101519.75;4996915;28;20555;-64
2022/08/13 00:17:49;;;;;;;8.00;3.55;;;;;;;24.21;35.44;101521.66;4996675;28;20038;-64
2022/08/13 00:20:17;;;;;;;7.00;3.40;;;;;;;24.14;36.02;101512.00;4996991;28;20034;-64
2022/08/13 00:22:43;;;;;;;6.20;3.42;;;;;;;23.96;36.57;101516.22;4996854;28;20033;-64
2022/08/13 00:25:09;;;;;;;9.48;3.50;;;;;;;23.86;37.18;101512.97;4979452;28;20053;-64
2022/08/13 00:27:35;;;;;;;9.15;3.83;;;;;;;23.87;36.68;101513.84;4997011;28;20080;-65
2022/08/13 00:30:05;;;;;;;6.00;3.75;;;;;;;23.87;37.23;101519.25;4996331;28;20412;-65
2022/08/13 00:32:30;;;;;;;5.90;3.58;;;;;;;23.84;37.11;101517.50;4996532;28;20038;-64
2022/08/13 00:35:01;;;;;;;6.78;3.30;;;;;;;23.74;37.23;101519.63;4996388;28;20031;-65
2022/08/13 00:37:27;;;;;;;5.90;3.63;;;;;;;23.73;37.98;101522.41;4996666;28;20445;-64
2022/08/13 00:39:56;;;;;;;6.78;3.42;;;;;;;23.47;38.36;101515.13;4996761;28;20030;-64
2022/08/13 00:42:23;;;;;;;7.60;3.58;;;;;;;23.30;39.23;101517.44;4996323;28;20034;-64
2022/08/13 00:44:49;;;;;;;6.88;3.60;;;;;;;23.18;39.61;101516.03;4996448;28;20058;-64
2022/08/13 00:50:00;;;;;;;5.95;3.75;;;;;;;23.11;39.25;101519.84;4996493;28;20064;-64
2022/08/13 00:52:30;;;;;;;6.03;3.80;;;;;;;22.98;40.32;101522.03;4996521;28;20396;-64
2022/08/13 00:55:00;;;;;;;9.90;4.03;;;;;;;22.97;40.13;101529.22;4996115;28;20548;-64
2022/08/13 00:57:28;;;;;;;5.85;3.55;;;;;;;22.97;40.45;101526.53;4978729;28;20542;-64
2022/08/13 00:59:54;;;;;;;9.38;3.70;;;;;;;22.92;40.40;101523.09;4995887;28;20082;-65
2022/08/13 01:02:21;;;;;;;10.35;3.60;;;;;;;22.91;40.54;101531.22;4996090;28;20058;-64
2022/08/13 01:04:46;;;;;;;7.13;3.50;;;;;;;22.87;40.60;101521.41;4996020;28;20499;-64
2022/08/13 01:07:15;;;;;;;10.65;4.07;;;;;;;22.83;40.84;101522.47;4996031;28;20030;-64
2022/08/13 01:09:40;;;;;;;6.32;3.83;;;;;;;22.81;40.96;101522.50;4995959;28;20027;-64
2022/08/13 01:12:09;;;;;;;6.18;3.53;;;;;;;22.69;41.51;101523.72;4995862;28;20077;-64
2022/08/13 01:14:36;;;;;;;6.40;3.60;;;;;;;22.66;42.23;101522.94;4995946;28;20042;-65
2022/08/13 01:17:03;;;;;;;6.15;3.75;;;;;;;22.61;42.82;101519.47;4995513;28;20036;-64
2022/08/13 01:19:31;;;;;;;5.10;3.40;;;;;;;22.58;42.51;101519.59;4995749;28;20552;-64
2022/08/13 01:21:59;;;;;;;8.52;3.85;;;;;;;22.54;42.52;101526.88;4995552;28;20113;-64
2022/08/13 01:24:24;;;;;;;10.20;3.88;;;;;;;22.50;42.40;101527.88;4995638;28;20041;-64
2022/08/13 01:26:51;;;;;;;6.15;3.85;;;;;;;22.46;43.04;101531.59;4995654;28;20026;-64
2022/08/13 01:29:18;;;;;;;10.40;4.03;;;;;;;22.41;43.05;101531.72;4995188;28;20089;-64
2022/08/13 01:31:44;;;;;;;5.85;4.10;;;;;;;22.32;43.10;101533.78;4995563;28;20041;-64
2022/08/13 01:34:11;;;;;;;6.65;3.88;;;;;;;22.28;43.21;101534.78;4995592;28;20027;-64
2022/08/13 01:36:37;;;;;;;6.50;4.10;;;;;;;22.27;42.48;101533.00;4978187;28;20026;-64
2022/08/13 01:39:05;;;;;;;7.75;4.22;;;;;;;22.10;43.13;101525.31;4995351;28;20035;-64
2022/08/13 01:41:34;;;;;;;8.70;4.40;;;;;;;22.13;42.93;101530.69;4995188;28;20027;-64
2022/08/13 01:44:05;;;;;;;9.68;4.47;;;;;;;22.07;42.83;101530.81;4995377;28;20034;-64
2022/08/13 01:52:04;;;;;;;8.80;4.05;;;;;;;22.02;43.26;101530.06;4995280;28;20042;-65
2022/08/13 01:54:32;;;;;;;7.63;4.18;;;;;;;21.94;43.91;101525.75;4995186;28;20480;-64
2022/08/13 01:57:00;;;;;;;8.10;4.20;;;;;;;21.89;44.30;101524.09;4994927;28;20045;-64
2022/08/13 01:59:26;;;;;;;7.45;4.32;;;;;;;21.72;44.64;101524.53;4994896;28;20026;-64
2022/08/13 02:01:53;;;;;;;8.50;4.30;;;;;;;21.66;44.77;101528.22;4995164;28;20033;-64
2022/08/13 02:04:19;;;;;;;5.60;4.15;;;;;;;21.55;45.02;101530.31;4994865;28;20035;-64
2022/08/13 02:06:44;;;;;;;6.72;4.20;;;;;;;21.35;45.66;101527.19;4994719;28;20038;-64
2022/08/13 02:09:10;;;;;;;8.00;4.10;;;;;;;21.34;45.71;101530.81;4994799;28;20480;-64
2022/08/13 02:11:36;;;;;;;5.00;4.28;;;;;;;21.34;45.78;101523.63;4994768;28;20073;-64
2022/08/13 02:14:04;;;;;;;8.38;4.40;;;;;;;21.34;45.54;101526.31;4994384;28;20031;-65
2022/08/13 02:16:31;;;;;;;8.57;4.32;;;;;;;21.27;45.78;101522.84;4994299;28;20109;-64
2022/08/13 02:18:56;;;;;;;6.30;4.50;;;;;;;21.38;45.12;101517.25;4994509;28;20038;-64
2022/08/13 02:21:22;;;;;;;8.10;4.30;;;;;;;21.25;45.83;101524.69;4994436;28;20385;-64
2022/08/13 02:23:57;;;;;;;7.65;4.30;;;;;;;21.28;45.24;101531.78;4994612;28;20026;-64
2022/08/13 02:26:23;;;;;;;9.88;4.40;;;;;;;21.31;45.16;101526.34;4994482;28;20437;-64
2022/08/13 02:28:50;;;;;;;6.53;4.40;;;;;;;21.14;45.89;101524.03;4994321;28;20129;-64
2022/08/13 02:31:18;;;;;;;10.02;4.60;;;;;;;21.15;46.17;101528.47;4994308;28;20023;-64
2022/08/13 02:33:43;;;;;;;7.18;4.20;;;;;;;21.18;46.14;101530.22;4994233;28;20031;-64
2022/08/13 02:36:10;;;;;;;9.98;4.72;;;;;;;21.17;46.17;101529.34;4994303;28;20034;-64
2022/08/13 02:38:39;;;;;;;7.70;4.50;;;;;;;21.03;46.54;101536.84;4994531;28;20041;-64
2022/08/13 02:43:50;;;;;;;7.22;4.35;;;;;;;20.84;47.10;101532.75;4994480;28;20037;-64
2022/08/13 02:46:16;;;;;;;7.75;4.40;;;;;;;20.85;47.48;101532.72;4994021;28;20045;-64
2022/08/13 02:48:43;;;;;;;6.78;4.60;;;;;;;20.81;47.56;101527.44;4994006;28;20027;-64
2022/08/13 02:51:12;;;;;;;7.28;4.80;;;;;;;20.81;47.98;101530.13;4994124;28;20373;-64
2022/08/13 02:53:41;;;;;;;6.63;4.57;;;;;;;20.85;47.31;101531.84;4994037;28;20029;-64
2022/08/13 02:56:08;;;;;;;7.25;4.90;;;;;;;20.75;47.68;101526.66;4993960;28;20030;-64
2022/08/13 02:58:36;;;;;;;6.53;4.45;;;;;;;20.65;47.55;101529.56;4993915;28;20022;-64
2022/08/13 03:01:03;;;;;;;7.10;4.47;;;;;;;20.65;46.82;101534.94;4994181;28;20074;-64
2022/08/13 03:03:31;;;;;;;9.02;4.50;;;;;;;20.58;47.87;101528.78;4994167;28;20026;-64
2022/08/13 03:05:58;;;;;;;7.60;4.47;;;;;;;20.69;47.36;101525.91;4994058;28;20034;-64
2022/08/13 03:08:27;;;;;;;7.20;4.70;;;;;;;20.73;46.60;101530.31;4993850;28;20038;-64
2022/08/13 03:10:54;;;;;;;9.50;4.60;;;;;;;20.81;45.96;101530.13;4993844;28;20030;-64
2022/08/13 03:13:24;;;;;;;7.22;4.57;;;;;;;20.88;45.90;101529.09;4993786;28;20030;-64
2022/08/13 03:15:54;;;;;;;20.08;4.90;;;;;;;20.90;45.41;101533.53;4993886;28;20030;-64
2022/08/13 03:18:20;;;;;;;7.82;5.13;;;;;;;21.02;44.59;101529.66;4993822;28;20041;-64
2022/08/13 03:20:45;;;;;;;10.38;4.63;;;;;;;20.99;44.80;101519.00;4993713;28;20113;-64
2022/08/13 03:23:11;;;;;;;9.60;5.20;;;;;;;20.96;45.04;101529.81;4993706;28;20054;-64
2022/08/13 03:25:37;;;;;;;9.70;4.90;;;;;;;20.86;45.13;101526.44;4976064;28;20388;-64
2022/08/13 03:28:06;;;;;;;9.80;4.80;;;;;;;20.72;45.43;101529.38;4993279;28;20113;-64
2022/08/13 03:30:35;;;;;;;11.98;5.10;;;;;;;20.74;45.04;101524.00;4992586;28;20030;-64
2022/08/13 03:33:13;;;;;;;8.32;4.88;;;;;;;20.69;45.10;101528.59;4993584;28;20053;-64
2022/08/13 03:35:40;;;;;;;9.48;4.97;;;;;;;20.71;45.09;101532.13;4993733;28;20039;-64
2022/08/13 03:38:11;;;;;;;8.60;4.82;;;;;;;20.70;44.98;101533.03;4993599;28;20031;-64
2022/08/13 03:43:23;;;;;;;8.05;4.85;;;;;;;20.56;45.99;101533.31;4993866;28;20037;-64
2022/08/13 03:45:48;;;;;;;7.80;4.63;;;;;;;20.52;45.87;101536.97;4993724;28;20030;-64
2022/08/13 03:48:15;;;;;;;6.55;4.90;;;;;;;20.59;45.57;101535.03;4993476;28;20022;-64
2022/08/13 03:50:41;;;;;;;8.70;4.80;;;;;;;20.40;46.32;101534.50;4993718;28;20501;-64
2022/08/13 03:53:07;;;;;;;10.88;4.93;;;;;;;20.40;46.57;101535.38;4993335;28;20502;-64
2022/08/13 03:55:33;;;;;;;8.73;4.82;;;;;;;20.32;46.61;101531.06;4975741;28;20058;-64
2022/08/13 03:58:00;;;;;;;7.05;4.53;;;;;;;20.30;46.33;101527.50;4993380;28;20388;-64
2022/08/13 04:00:28;;;;;;;6.97;4.72;;;;;;;20.27;46.53;101528.47;4993328;28;20026;-64
2022/08/13 04:02:57;;;;;;;7.80;4.78;;;;;;;20.18;46.96;101534.88;4993333;28;20035;-64
2022/08/13 04:05:23;;;;;;;9.95;4.90;;;;;;;20.25;47.20;101531.16;4993157;28;20045;-64
2022/08/13 04:07:52;;;;;;;10.82;4.32;;;;;;;20.19;46.26;101523.22;4993259;28;20035;-64
2022/08/13 04:10:18;;;;;;;9.07;4.72;;;;;;;20.23;46.77;101527.63;4993286;28;20031;-64
2022/08/13 04:12:45;;;;;;;9.68;4.38;;;;;;;20.19;46.71;101525.91;4993234;28;20109;-65
2022/08/13 04:15:11;;;;;;;12.32;4.97;;;;;;;20.30;46.49;101524.81;4993251;28;20129;-64
2022/08/13 04:17:37;;;;;;;8.25;5.13;;;;;;;20.21;45.86;101524.09;4993065;28;20054;-64
2022/08/13 04:20:09;;;;;;;12.85;4.97;;;;;;;20.18;46.70;101521.47;4992977;28;20034;-65
2022/08/13 04:22:36;;;;;;;7.15;4.70;;;;;;;20.20;46.54;101529.47;4993385;28;20022;-64
2022/08/13 04:25:04;;;;;;;7.75;4.68;;;;;;;20.26;46.86;101532.97;4975916;28;20476;-64
2022/08/13 04:27:32;;;;;;;8.35;4.90;;;;;;;20.24;46.47;101537.44;4993152;28;20026;-64
2022/08/13 04:29:58;;;;;;;11.73;4.93;;;;;;;20.18;46.34;101532.22;4992930;28;20081;-65
2022/08/13 04:32:24;;;;;;;9.57;5.03;;;;;;;20.15;46.85;101534.94;4993032;28;20034;-64
2022/08/13 04:34:50;;;;;;;7.10;4.75;;;;;;;20.17;46.91;101538.50;4992816;28;20093;-65
2022/08/13 04:37:16;;;;;;;9.98;4.65;;;;;;;20.25;46.63;101538.34;4993021;28;20524;-64
2022/08/13 04:39:42;;;;;;;8.52;4.90;;;;;;;20.24;46.86;101539.25;4996513;28;20034;-64
2022/08/13 04:42:07;;;;;;;9.50;4.90;;;;;;;20.32;46.32;101534.63;4996618;28;20027;-64
2022/08/13 04:44:34;;;;;;;8.23;4.43;;;;;;;20.34;46.31;101543.56;4996462;28;20031;-64
2022/08/13 04:47:00;;;;;;;9.02;4.90;;;;;;;20.34;46.00;101538.19;4996315;28;20026;-64
2022/08/13 04:49:25;;;;;;;9.85;4.80;;;;;;;20.26;46.33;101540.13;4995948;28;20033;-64
2022/08/13 04:51:51;;;;;;;11.73;5.00;;;;;;;20.30;46.59;101538.25;4996297;28;20030;-64
2022/08/13 04:54:19;;;;;;;12.82;5.07;;;;;;;20.07;47.96;101542.22;4996182;28;20027;-64
2022/08/13 04:56:46;;;;;;;7.07;4.43;;;;;;;20.15;47.38;101544.78;4996122;28;20065;-64
2022/08/13 04:59:12;;;;;;;11.05;4.72;;;;;;;20.08;47.43;101543.13;4996067;28;20026;-64
2022/08/13 05:01:38;;;;;;;11.18;6.40;;;;;;;20.22;47.17;101549.16;4978468;28;20026;-64
2022/08/13 05:04:04;;;;;;;11.65;8.00;;;;;;;20.28;47.05;101549.03;4996070;28;20032;-64
2022/08/13 05:06:29;;;;;;;16.77;5.68;;;;;;;20.29;46.97;101544.53;4995963;28;20023;-64
2022/08/13 05:08:58;;;;;;;7.80;4.85;;;;;;;20.35;46.72;101550.69;4996186;28;20034;-64
2022/08/13 05:11:24;;;;;;;9.32;5.03;;;;;;;20.30;47.04;101549.91;4995833;28;20030;-64
2022/08/13 05:13:49;;;;;;;8.57;4.95;;;;;;;20.29;47.01;101548.09;4995858;28;20436;-64
2022/08/13 05:16:16;;;;;;;8.93;4.75;;;;;;;20.37;47.20;101550.66;4995527;28;20030;-65
2022/08/13 05:18:45;;;;;;;8.85;4.85;;;;;;;20.41;46.74;101547.00;4995730;28;20037;-64
2022/08/13 05:21:13;;;;;;;13.35;4.82;;;;;;;20.54;46.01;101551.25;4995799;28;20054;-64
2022/08/13 05:23:40;;;;;;;8.63;5.15;;;;;;;20.63;46.68;101550.19;4994481;28;20389;-64
2022/08/13 05:26:08;;;;;;;9.75;5.03;;;;;;;20.71;45.96;101554.50;4995632;28;20038;-64
2022/08/13 05:28:34;;;;;;;16.35;5.10;;;;;;;20.78;46.24;101555.25;4995191;28;20059;-64
2022/08/13 05:31:00;;;;;;;8.75;4.80;;;;;;;20.97;45.61;101550.38;4977911;28;20407;-64
2022/08/13 05:33:28;;;;;;;9.95;5.03;;;;;;;21.02;45.62;101561.91;4995534;28;20475;-64
2022/08/13 05:36:02;;;;;;;13.88;4.90;;;;;;;21.16;44.82;101551.78;4995462;28;20395;-64
2022/08/13 05:38:29;;;;;;;9.77;4.70;;;;;;;21.29;44.77;101555.06;4995564;28;20035;-63
2022/08/13 05:40:58;;;;;;;13.30;4.65;;;;;;;21.41;44.43;101554.84;4995642;28;20114;-64
2022/08/13 05:43:26;;;;;;;8.63;4.90;;;;;;;21.50;44.32;101548.38;4995462;28;20030;-64
2022/08/13 05:45:57;;;;;;;9.40;5.00;;;;;;;21.63;44.13;101549.84;4978395;28;20041;-64
2022/08/13 05:48:27;;;;;;;13.02;4.93;;;;;;;21.89;43.85;101545.63;4995246;28;20030;-64
2022/08/13 05:50:54;;;;;;;8.48;5.00;;;;;;;21.97;43.51;101549.00;4994096;28;20037;-64
2022/08/13 05:53:21;;;;;;;13.80;5.20;;;;;;;22.21;43.29;101550.22;4995096;28;20105;-64
2022/08/13 05:55:47;;;;;;;10.95;4.80;;;;;;;22.34;42.49;101550.75;4995174;28;20022;-65
2022/08/13 05:58:13;;;;;;;13.05;4.90;;;;;;;22.49;42.52;101545.84;4995051;28;20045;-64
2022/08/13 06:03:31;;;;;;;12.25;5.22;;;;;;;22.65;42.63;101551.69;4995348;28;20101;-64
2022/08/13 06:06:03;;;;;;;9.15;5.05;;;;;;;22.76;42.07;101546.00;4994928;28;20117;-64
2022/08/13 06:08:31;;;;;;;8.23;5.18;;;;;;;22.84;42.15;101546.66;4994807;28;20037;-65
2022/08/13 06:10:58;;;;;;;8.88;4.97;;;;;;;22.95;41.62;101544.59;4994803;28;20033;-64
2022/08/13 06:13:25;;;;;;;9.23;5.10;;;;;;;23.12;41.23;101545.88;4994988;28;20049;-64
2022/08/13 06:16:01;;;;;;;9.50;5.05;;;;;;;23.14;41.69;101550.31;4994637;28;20023;-64
2022/08/13 06:18:35;;;;;;;11.65;5.00;;;;;;;23.37;40.88;101546.00;4994487;28;20022;-64
2022/08/13 06:21:04;;;;;;;9.02;5.10;;;;;;;23.39;40.88;101555.81;4994413;28;20563;-64
2022/08/13 06:23:32;;;;;;;12.93;5.15;;;;;;;23.55;40.41;101547.22;4994611;28;20026;-64
2022/08/13 06:25:59;;;;;;;9.63;4.90;;;;;;;23.63;39.83;101556.84;4994661;28;20026;-64
2022/08/13 06:28:27;;;;;;;7.97;5.30;;;;;;;23.75;39.64;101550.22;4994439;28;20030;-64
2022/08/13 06:31:02;;;;;;;14.15;5.30;;;;;;;23.91;39.74;101553.28;4994641;28;20484;-64
2022/08/13 06:33:29;;;;;;;13.88;5.22;;;;;;;23.98;39.32;101550.34;4994463;28;20436;-62
2022/08/13 06:36:01;;;;;;;9.02;5.68;;;;;;;24.19;39.83;101550.50;4994342;28;20037;-62
2022/08/13 06:38:44;;;;;;;11.02;5.10;;;;;;;24.35;39.20;101556.28;4994440;28;20105;-62
2022/08/13 06:41:12;;;;;;;14.77;5.50;;;;;;;24.31;38.92;101560.03;4994354;28;20034;-62
2022/08/13 06:43:41;;;;;;;10.65;4.80;;;;;;;24.52;38.49;101559.28;4994189;28;20023;-62
2022/08/13 06:46:11;;;;;;;7.68;4.72;;;;;;;24.63;38.09;101567.03;4994447;28;20022;-62
2022/08/13 06:48:39;;;;;;;9.45;4.60;;;;;;;24.71;38.58;101562.19;4993965;28;20475;-62
2022/08/13 06:51:07;;;;;;;8.15;4.47;;;;;;;24.88;38.22;101559.78;4993943;28;20036;-62
2022/08/13 06:53:37;;;;;;;10.25;4.63;;;;;;;25.05;37.16;101555.53;4994124;28;20485;-62
2022/08/13 06:56:05;;;;;;;6.28;4.22;;;;;;;25.10;38.22;101556.28;4993988;28;20040;-62
2022/08/13 06:58:31;;;;;;;9.55;4.43;;;;;;;25.42;37.34;101560.44;4993903;28;20048;-62
2022/08/13 07:00:59;;;;;;;8.93;4.47;;;;;;;25.64;36.56;101555.03;4993551;28;20057;-62
2022/08/13 07:03:26;;;;;;;12.63;4.30;;;;;;;25.75;36.69;101552.78;4993998;28;20109;-62
2022/08/13 07:05:53;;;;;;;7.85;4.20;;;;;;;25.93;36.01;101560.16;4993803;28;20069;-62
2022/08/13 07:08:20;;;;;;;7.88;4.25;;;;;;;26.16;35.79;101551.03;4993767;28;20037;-62
2022/08/13 07:11:21;;;;;;;10.07;4.18;;;;;;;26.12;35.06;101554.88;4993805;28;20088;-62
2022/08/13 07:13:37;;;;;;;9.90;4.15;;;;;;;26.27;35.76;101565.97;4993313;28;20372;-62
2022/08/13 07:16:03;;;;;;;12.75;4.25;;;;;;;26.41;34.47;101563.53;4993758;28;20404;-62
2022/08/13 07:18:31;;;;;;;11.05;4.38;;;;;;;26.50;34.32;101567.69;4993617;28;20030;-62
2022/08/13 07:20:57;;;;;;;9.10;4.25;;;;;;;26.58;34.07;101566.41;4993652;28;20066;-62
2022/08/13 07:23:22;;;;;;;9.88;4.53;;;;;;;26.64;34.08;101557.16;4993519;28;20508;-62
2022/08/13 07:25:49;;;;;;;9.10;4.22;;;;;;;27.00;34.40;101561.81;4993538;28;20027;-62
2022/08/13 07:28:19;;;;;;;11.63;4.43;;;;;;;27.05;32.99;101560.66;4993608;28;20034;-63
2022/08/13 07:30:47;;;;;;;10.45;4.05;;;;;;;27.32;33.01;101565.75;4993592;28;20042;-62
2022/08/13 07:33:13;;;;;;;13.02;4.20;;;;;;;27.46;33.23;101564.16;4993558;28;20109;-62
2022/08/13 07:35:39;;;;;;;9.05;3.97;;;;;;;27.65;32.27;101555.97;4993449;28;20118;-62
2022/08/13 07:38:04;;;;;;;7.18;4.00;;;;;;;27.84;32.12;101558.72;4993504;28;20030;-62
2022/08/13 07:40:33;;;;;;;8.75;3.90;;;;;;;27.99;32.07;101557.03;4993487;28;20086;-62
2022/08/13 07:43:03;;;;;;;8.13;3.90;;;;;;;28.10;31.14;101570.97;4993637;28;20049;-62
2022/08/13 07:45:28;;;;;;;9.50;3.97;;;;;;;28.23;31.56;101564.91;4993633;28;20531;-62
2022/08/13 07:47:55;;;;;;;8.50;4.20;;;;;;;28.37;30.76;101565.97;4993193;28;20042;-62
2022/08/13 07:50:22;;;;;;;9.75;3.83;;;;;;;28.47;30.82;101563.63;4993415;28;20043;-62
2022/08/13 07:52:57;;;;;;;10.65;4.15;;;;;;;28.47;30.56;101566.34;4993139;28;20034;-62
2022/08/13 07:55:26;;;;;;;11.55;4.10;;;;;;;28.58;30.70;101569.41;4993391;28;20026;-62
2022/08/13 07:57:52;;;;;;;7.32;3.88;;;;;;;28.78;30.31;101571.06;4993246;28;20085;-62
2022/08/13 08:00:25;;;;;;;7.45;3.83;;;;;;;29.03;30.32;101570.59;4993328;28;20033;-62
2022/08/13 08:03:01;;;;;;;12.13;4.00;;;;;;;29.31;30.30;101571.81;4993319;28;20121;-62
2022/08/13 08:05:31;;;;;;;13.57;4.57;;;;;;;29.16;29.34;101565.34;4993472;28;20093;-62
2022/08/13 08:07:58;;;;;;;10.52;3.58;;;;;;;29.54;28.82;101559.59;4993557;28;20030;-62
2022/08/13 08:10:24;;;;;;;12.60;3.92;;;;;;;29.38;28.79;101568.66;4993139;28;20037;-62
2022/08/13 08:12:49;;;;;;;8.13;3.50;;;;;;;29.28;29.02;101570.13;4993909;28;20425;-62
2022/08/13 08:15:14;;;;;;;15.13;3.58;;;;;;;29.66;29.29;101567.09;4996754;28;20428;-62
2022/08/13 08:17:40;;;;;;;10.70;3.70;;;;;;;29.75;28.99;101563.84;4979369;28;20055;-62
2022/08/13 08:20:06;;;;;;;9.93;3.40;;;;;;;30.02;28.86;101565.91;4996920;28;20033;-62
2022/08/13 08:22:33;;;;;;;11.45;3.28;;;;;;;30.16;27.72;101566.88;4996880;28;20030;-62
2022/08/13 08:24:59;;;;;;;9.18;3.38;;;;;;;30.43;27.90;101566.19;4996902;28;20054;-63
2022/08/13 08:27:25;;;;;;;7.07;2.90;;;;;;;30.80;26.61;101570.28;4996598;28;20104;-62
2022/08/13 08:29:52;;;;;;;8.50;2.83;;;;;;;31.11;26.47;101565.59;4996565;28;20050;-62
2022/08/13 08:32:18;;;;;;;9.40;3.25;;;;;;;31.26;26.29;101572.78;4996492;28;20061;-63
2022/08/13 08:34:46;;;;;;;11.20;3.00;;;;;;;31.41;25.92;101570.94;4996650;28;20033;-62
2022/08/13 08:43:10;;;;;;;6.47;2.90;;;;;;;31.72;25.28;101567.06;4996982;28;20100;-62
2022/08/13 08:45:36;;;;;;;7.03;3.03;;;;;;;31.83;25.83;101570.00;4996375;28;20476;-62
2022/08/13 08:48:03;;;;;;;7.85;2.60;;;;;;;31.89;24.77;101564.09;4996288;28;20109;-63
2022/08/13 08:50:28;;;;;;;10.68;2.78;;;;;;;31.95;25.88;101564.66;4996345;28;20050;-62
2022/08/13 08:55:40;;;;;;;9.07;2.53;;;;;;;32.19;25.31;101570.31;4996314;28;20081;-62
2022/08/13 08:58:07;;;;;;;9.38;2.78;;;;;;;32.25;24.89;101569.88;4996157;28;20069;-63
2022/08/13 09:00:35;;;;;;;6.90;3.42;;;;;;;32.38;24.74;101566.25;4996306;28;20015;-63
2022/08/13 09:03:01;;;;;;;7.20;2.70;;;;;;;32.73;24.42;101571.09;4978615;28;20451;-62
2022/08/13 09:05:27;;;;;;;7.15;2.70;;;;;;;32.87;24.00;101561.91;4978532;28;20130;-62
2022/08/13 09:07:54;;;;;;;8.52;2.92;;;;;;;32.96;23.03;101563.13;4995938;28;20022;-62
2022/08/13 09:10:21;;;;;;;8.30;2.78;;;;;;;33.24;23.14;101562.88;4996208;28;20030;-62
2022/08/13 09:12:50;;;;;;;10.98;2.75;;;;;;;33.47;22.79;101561.19;4995959;28;20483;-62
2022/08/13 09:15:21;;;;;;;7.13;2.80;;;;;;;33.89;22.35;101559.81;4995693;28;20026;-62
2022/08/13 09:17:47;;;;;;;;;;;;;;;34.14;22.62;101549.75;4996126;28;20113;-62
2022/08/13 09:20:16;;;;;;;6.93;2.33;;;;;;;33.89;20.98;101545.25;4995558;28;19989;-62
2022/08/13 09:22:44;;;;;;;4.45;2.20;;;;;;;33.74;21.38;101549.13;4995722;28;20037;-62
2022/08/13 09:25:16;;;;;;;8.70;2.70;;;;;;;33.93;21.79;101544.03;4995410;28;20031;-62
2022/08/13 09:27:43;;;;;;;4.50;2.38;;;;;;;33.87;22.01;101553.56;4979060;28;20135;-62
2022/08/13 09:30:10;;;;;;;6.82;2.40;;;;;;;33.44;21.65;101552.28;4995527;28;20053;-62
2022/08/13 09:32:36;;;;;;;7.90;2.53;;;;;;;33.46;21.61;101551.22;4995560;28;20022;-62
2022/08/13 09:35:04;;;;;;;4.15;2.28;;;;;;;34.03;21.64;101550.56;4977973;28;20062;-62
2022/08/13 09:37:31;;;;;;;5.35;2.40;;;;;;;34.32;21.29;101550.19;4995380;28;20125;-62
2022/08/13 09:40:04;;;;;;;6.10;2.42;;;;;;;34.34;20.77;101545.44;4995516;28;20420;-62
2022/08/13 09:42:36;;;;;;;3.67;2.20;;;;;;;34.44;20.21;101546.47;4995348;28;20476;-62
2022/08/13 09:45:03;;;;;;;6.65;2.30;;;;;;;34.42;19.84;101542.09;4995397;28;20034;-62
2022/08/13 09:47:31;;;;;;;4.32;2.30;;;;;;;34.74;19.54;101550.56;4995125;28;20053;-62
2022/08/13 09:49:56;;;;;;;7.85;2.22;;;;;;;34.33;19.98;101546.44;4994998;28;20441;-62
2022/08/13 09:52:22;;;;;;;4.88;2.20;;;;;;;34.77;19.85;101542.06;4995235;28;20102;-62
2022/08/13 09:54:48;;;;;;;7.68;2.30;;;;;;;35.01;20.35;101540.09;4995072;28;20394;-62
2022/08/13 09:57:14;;;;;;;9.07;2.25;;;;;;;35.45;18.76;101531.94;4995157;28;20057;-62
2022/08/13 09:59:39;;;;;;;7.43;2.30;;;;;;;35.65;18.50;101531.16;4994962;28;20105;-62
2022/08/13 10:02:12;;;;;;;4.95;2.10;;;;;;;35.20;19.51;101533.09;4994841;28;20038;-62
2022/08/13 10:04:38;;;;;;;4.25;2.00;;;;;;;34.87;18.84;101526.59;4995287;28;20183;-62
2022/08/13 10:07:06;;;;;;;3.63;2.00;;;;;;;34.53;19.33;101518.31;4994870;28;20026;-62
2022/08/13 10:09:33;;;;;;;4.50;2.28;;;;;;;34.98;18.69;101518.38;4994893;28;20026;-62
2022/08/13 10:12:03;;;;;;;3.03;2.10;;;;;;;35.22;19.36;101515.50;4994951;28;20082;-62
2022/08/13 10:14:28;;;;;;;3.00;1.95;;;;;;;35.51;17.82;101513.09;4994556;28;20030;-62
2022/08/13 10:16:54;;;;;;;4.93;2.13;;;;;;;35.70;18.67;101514.28;4994538;28;20026;-63
2022/08/13 10:19:20;;;;;;;4.97;2.30;;;;;;;35.94;18.83;101514.94;4994528;28;20031;-63
2022/08/13 10:21:46;;;;;;;5.70;2.10;;;;;;;35.92;18.36;101511.44;4994570;28;20507;-63
2022/08/13 10:24:12;;;;;;;8.63;2.30;;;;;;;35.85;18.42;101511.09;4994602;28;20027;-62
2022/08/13 10:26:40;;;;;;;3.28;1.90;;;;;;;35.70;17.13;101503.28;4994560;28;20117;-62
2022/08/13 10:29:08;;;;;;;5.70;2.10;;;;;;;35.81;17.34;101498.63;4994134;28;20535;-62
2022/08/13 10:31:33;;;;;;;3.30;2.00;;;;;;;35.50;17.79;101508.56;4994668;28;20058;-62
2022/08/13 10:33:59;;;;;;;7.43;2.10;;;;;;;35.44;17.84;101498.06;4994378;28;20031;-62
2022/08/13 10:36:26;;;;;;;5.07;2.20;;;;;;;35.29;17.68;101494.75;4993754;28;20105;-62
2022/08/13 10:38:51;;;;;;;6.53;2.10;;;;;;;35.55;18.26;101505.47;4994273;28;20477;-63
2022/08/13 10:41:17;;;;;;;2.50;1.90;;;;;;;35.24;18.00;101498.88;4994258;28;20085;-62
2022/08/13 10:43:42;;;;;;;5.63;2.10;;;;;;;35.07;18.00;101503.00;4994213;28;20473;-62
2022/08/13 10:46:12;;;;;;;5.28;2.10;;;;;;;35.40;17.68;101498.47;4994252;28;20369;-62
2022/08/13 10:48:38;;;;;;;7.10;2.00;;;;;;;35.65;16.97;101497.31;4976578;28;20121;-62
2022/08/13 10:51:04;;;;;;;4.88;1.90;;;;;;;35.53;17.40;101496.47;4994205;28;20030;-62
2022/08/13 10:56:15;;;;;;;3.28;1.90;;;;;;;36.35;15.93;101496.72;4994010;28;20113;-62
2022/08/13 10:58:42;;;;;;;6.18;1.85;;;;;;;35.94;15.97;101484.69;4993883;28;20046;-62
2022/08/13 11:01:08;;;;;;;3.50;1.80;;;;;;;36.18;17.30;101491.81;4994093;28;20038;-62
2022/08/13 11:03:34;;;;;;;2.55;1.70;;;;;;;36.35;16.16;101493.97;4993832;28;20027;-62
2022/08/13 11:06:01;;;;;;;2.90;1.90;;;;;;;36.40;15.37;101490.81;4993802;28;20081;-62
2022/08/13 11:08:27;;;;;;;3.63;1.90;;;;;;;36.52;16.18;101496.13;4993931;28;20049;-63
2022/08/13 11:10:52;;;;;;;3.70;2.00;;;;;;;36.67;15.60;101493.91;4993822;28;20035;-63
2022/08/13 11:13:18;;;;;;;2.92;1.90;;;;;;;36.88;15.58;101485.59;4994134;28;20460;-62
2022/08/13 11:15:43;;;;;;;3.03;1.90;;;;;;;37.16;15.37;101485.84;4993731;28;20461;-62
2022/08/13 11:18:09;;;;;;;4.07;2.00;;;;;;;36.91;16.65;101484.41;4993530;28;20158;-62
2022/08/13 11:21:02;;;;;;;7.22;2.10;;;;;;;36.72;16.22;101477.81;4993628;28;20484;-63
2022/08/13 11:23:20;;;;;;;5.53;2.00;;;;;;;36.56;16.40;101481.06;4993516;28;20061;-62
2022/08/13 11:25:46;;;;;;;3.42;1.70;;;;;;;36.73;16.32;101476.81;4993791;28;20480;-63
2022/08/13 11:28:13;;;;;;;3.97;1.90;;;;;;;36.75;16.00;101476.69;4993744;28;20034;-62
2022/08/13 11:30:38;;;;;;;2.90;1.83;;;;;;;37.20;15.48;101463.38;4993718;28;20035;-62
2022/08/13 11:33:05;;;;;;;6.40;1.90;;;;;;;37.48;15.25;101452.56;4993664;28;20433;-62
2022/08/13 11:35:31;;;;;;;4.57;1.90;;;;;;;37.76;14.90;101457.22;4993447;28;20477;-63
2022/08/13 11:37:56;;;;;;;6.10;1.90;;;;;;;37.72;15.40;101453.00;4976002;28;20031;-62
2022/08/13 11:40:22;;;;;;;4.93;2.10;;;;;;;37.68;16.22;101461.72;4993660;28;20034;-62
2022/08/13 11:42:47;;;;;;;4.80;2.08;;;;;;;37.05;15.35;101460.16;4975885;28;20030;-63
2022/08/13 11:45:13;;;;;;;6.70;2.05;;;;;;;36.97;15.63;101462.75;4993498;28;20070;-62
2022/08/13 11:47:41;;;;;;;8.48;2.00;;;;;;;37.16;15.28;101458.28;4995295;28;20480;-62
2022/08/13 11:50:07;;;;;;;4.55;2.03;;;;;;;37.40;15.98;101452.41;4997261;28;20037;-62
2022/08/13 11:52:32;;;;;;;7.20;2.00;;;;;;;37.57;15.34;101454.47;4997113;28;20086;-63
2022/08/13 11:54:58;;;;;;;7.38;2.08;;;;;;;37.53;15.58;101455.78;4997336;28;20023;-63
2022/08/13 11:57:23;;;;;;;3.28;2.00;;;;;;;37.56;15.21;101448.09;4997221;28;20033;-62
2022/08/13 11:59:49;;;;;;;5.72;2.00;;;;;;;37.90;14.73;101453.16;4997104;28;20561;-62